Time;durP1;ratioP1;P1;durP2;ratioP2;P2;SDS_P1;SDS_P2;PMS_P1;PMS_P2;Temp;Humidity;BMP_temperature;BMP_pressure;BME280_temperature;BME280_humidity;BME280_pressure;Samples;Min_cycle;Max_cycle;Signal;HPM_P1;HPM_P2
2021/06/12 00:01:10;;;;;;;10.70;6.93;;;18.60;99.90;;;;;;4998453;28;20075;-76
2021/06/12 00:03:36;;;;;;;9.43;6.53;;;18.60;99.90;;;;;;4999816;28;20019;-76
2021/06/12 00:06:04;;;;;;;11.63;6.55;;;18.60;99.90;;;;;;4999832;28;20031;-75
2021/06/12 00:08:29;;;;;;;16.15;7.10;;;18.60;99.90;;;;;;4999653;28;20031;-76
2021/06/12 00:10:55;;;;;;;18.77;7.85;;;18.70;99.90;;;;;;4995083;28;20027;-78
2021/06/12 00:13:21;;;;;;;19.73;6.97;;;18.70;99.90;;;;;;5000150;28;20078;-74
2021/06/12 00:15:47;;;;;;;18.30;7.53;;;18.60;99.90;;;;;;5000448;28;20038;-76
2021/06/12 00:18:13;;;;;;;12.95;6.55;;;18.50;99.90;;;;;;5001321;28;20038;-77
2021/06/12 00:20:39;;;;;;;14.88;6.88;;;18.50;99.90;;;;;;5001329;28;20039;-76
2021/06/12 00:23:06;;;;;;;13.00;6.60;;;18.50;99.90;;;;;;5001537;28;20023;-75
2021/06/12 00:25:32;;;;;;;12.80;6.53;;;18.50;99.90;;;;;;5000590;28;20023;-75
2021/06/12 00:28:01;;;;;;;13.77;7.47;;;18.50;99.90;;;;;;4999647;28;20345;-76
2021/06/12 00:30:28;;;;;;;16.23;6.60;;;18.40;99.90;;;;;;4991658;28;20078;-76
2021/06/12 00:32:54;;;;;;;14.15;6.72;;;18.40;99.90;;;;;;5000652;28;20026;-76
2021/06/12 00:35:21;;;;;;;16.35;6.38;;;18.40;99.90;;;;;;5000577;28;20015;-75
2021/06/12 00:37:47;;;;;;;13.88;6.13;;;18.40;99.90;;;;;;5001018;28;20019;-76
2021/06/12 00:40:14;;;;;;;19.40;7.13;;;18.40;99.90;;;;;;5000986;28;20043;-76
2021/06/12 00:42:40;;;;;;;15.95;6.57;;;18.40;99.90;;;;;;4993295;28;20085;-72
2021/06/12 00:45:08;;;;;;;14.63;6.30;;;18.40;99.90;;;;;;4982742;28;20023;-75
2021/06/12 00:47:33;;;;;;;16.05;6.72;;;18.40;99.90;;;;;;4978628;28;20049;-76
2021/06/12 00:49:59;;;;;;;14.77;5.97;;;18.40;99.90;;;;;;4980401;28;20035;-76
2021/06/12 00:52:24;;;;;;;12.32;6.68;;;18.30;99.90;;;;;;4978959;28;20065;-76
2021/06/12 00:54:50;;;;;;;15.30;5.90;;;18.40;99.90;;;;;;4977473;28;20110;-75
2021/06/12 00:57:16;;;;;;;16.83;6.90;;;18.40;99.90;;;;;;4977742;28;20041;-75
2021/06/12 00:59:41;;;;;;;16.13;6.38;;;18.40;99.90;;;;;;4977392;28;20023;-76
2021/06/12 01:02:07;;;;;;;14.13;6.22;;;18.40;99.90;;;;;;4977732;28;20054;-75
2021/06/12 01:04:33;;;;;;;15.73;5.97;;;18.30;99.90;;;;;;4975075;28;20077;-75
2021/06/12 01:06:59;;;;;;;14.82;6.28;;;18.30;99.90;;;;;;4975469;28;20070;-75
2021/06/12 01:09:25;;;;;;;15.18;6.22;;;18.30;99.90;;;;;;4975991;28;20483;-75
2021/06/12 01:12:02;;;;;;;15.73;5.85;;;18.30;99.90;;;;;;4976160;28;20031;-76
2021/06/12 01:14:29;;;;;;;;;;;18.30;99.90;;;;;;4977812;28;20038;-75
2021/06/12 01:17:05;;;;;;;21.02;6.40;;;18.40;99.90;;;;;;4991259;28;19916;-75
2021/06/12 01:19:49;;;;;;;15.30;7.32;;;18.40;99.90;;;;;;4977067;28;20085;-76
2021/06/12 01:22:24;;;;;;;17.75;6.32;;;18.30;99.90;;;;;;4973744;28;20062;-76
2021/06/12 01:25:02;;;;;;;16.83;6.13;;;18.40;99.90;;;;;;4974216;28;20088;-76
2021/06/12 01:27:58;;;;;;;20.58;6.35;;;18.30;99.90;;;;;;4990214;28;20047;-76
2021/06/12 01:30:27;;;;;;;11.52;5.95;;;18.30;99.90;;;;;;4975881;28;20045;-75
2021/06/12 01:32:57;;;;;;;13.50;5.70;;;18.30;99.90;;;;;;4974656;28;20050;-76
2021/06/12 01:35:38;;;;;;;15.75;7.25;;;18.30;99.90;;;;;;4975228;28;20578;-76
2021/06/12 01:38:06;;;;;;;18.27;7.97;;;18.30;99.90;;;;;;4962634;28;20368;-76
2021/06/12 01:40:35;;;;;;;12.93;5.93;;;18.30;99.90;;;;;;4974702;28;20065;-76
2021/06/12 01:43:03;;;;;;;14.50;6.53;;;18.30;99.90;;;;;;4973479;28;20043;-76
2021/06/12 01:45:29;;;;;;;17.73;6.47;;;18.30;99.90;;;;;;4975561;28;20027;-76
2021/06/12 01:47:55;;;;;;;11.52;6.43;;;18.40;99.90;;;;;;4975450;28;20031;-76
2021/06/12 01:50:24;;;;;;;13.63;6.03;;;18.30;99.90;;;;;;4975835;28;20504;-76
2021/06/12 01:52:52;;;;;;;10.63;5.95;;;18.30;99.90;;;;;;4975235;28;20023;-75
2021/06/12 01:55:21;;;;;;;16.20;7.38;;;18.30;99.90;;;;;;4974535;28;20046;-75
2021/06/12 01:57:48;;;;;;;13.10;5.55;;;18.30;99.90;;;;;;4974966;28;20157;-76
2021/06/12 02:00:15;;;;;;;20.00;6.43;;;18.40;99.90;;;;;;4974246;28;20587;-76
2021/06/12 02:02:42;;;;;;;21.55;7.00;;;18.30;99.90;;;;;;4973622;28;20126;-76
2021/06/12 02:05:22;;;;;;;15.98;5.82;;;18.30;99.90;;;;;;4972725;28;20110;-76
2021/06/12 02:07:49;;;;;;;14.13;6.07;;;18.30;99.90;;;;;;4974003;28;20019;-77
2021/06/12 02:10:34;;;;;;;17.55;6.13;;;18.30;99.90;;;;;;4974686;28;20054;-76
2021/06/12 02:13:00;;;;;;;18.48;6.25;;;18.30;99.90;;;;;;4974789;28;20039;-77
2021/06/12 02:15:28;;;;;;;14.25;6.25;;;18.40;99.90;;;;;;4974388;28;20034;-76
2021/06/12 02:17:58;;;;;;;17.83;7.15;;;18.40;99.90;;;;;;4972759;28;20042;-76
2021/06/12 02:20:24;;;;;;;22.58;6.93;;;18.40;99.90;;;;;;4973592;28;20030;-76
2021/06/12 02:22:51;;;;;;;20.08;6.55;;;18.40;99.90;;;;;;4973107;28;20129;-76
2021/06/12 02:25:18;;;;;;;16.35;6.60;;;18.40;99.90;;;;;;4974655;28;20038;-76
2021/06/12 02:28:13;;;;;;;21.75;6.90;;;18.40;99.90;;;;;;4973499;28;20039;-75
2021/06/12 02:30:44;;;;;;;14.20;6.28;;;18.40;99.90;;;;;;4973975;28;20037;-75
2021/06/12 02:33:13;;;;;;;14.77;6.60;;;18.40;99.90;;;;;;4974403;28;20081;-75
2021/06/12 02:35:39;;;;;;;12.50;6.30;;;18.40;99.90;;;;;;4971976;28;20058;-76
2021/06/12 02:38:05;;;;;;;14.77;6.63;;;18.40;99.90;;;;;;4974337;28;20066;-75
2021/06/12 02:40:31;;;;;;;14.18;7.45;;;18.40;99.90;;;;;;4972881;28;20430;-75
2021/06/12 02:42:57;;;;;;;15.45;6.75;;;18.40;99.90;;;;;;4974541;28;20041;-76
2021/06/12 02:45:25;;;;;;;14.65;6.10;;;18.40;99.90;;;;;;4974361;28;20388;-75
2021/06/12 02:47:54;;;;;;;19.83;7.22;;;18.40;99.90;;;;;;4974209;28;20547;-75
2021/06/12 02:50:22;;;;;;;14.60;7.00;;;18.40;99.90;;;;;;4970755;28;20034;-75
2021/06/12 02:52:51;;;;;;;12.32;6.68;;;18.40;99.90;;;;;;4971868;28;20036;-75
2021/06/12 02:55:17;;;;;;;14.77;6.57;;;18.30;99.90;;;;;;4973873;28;20499;-75
2021/06/12 02:57:49;;;;;;;15.20;6.43;;;18.20;99.90;;;;;;4973942;28;20034;-75
2021/06/12 03:00:18;;;;;;;15.68;7.57;;;18.30;99.90;;;;;;4972951;28;20054;-75
2021/06/12 03:02:45;;;;;;;15.40;6.32;;;18.20;99.90;;;;;;4974228;28;20038;-76
2021/06/12 03:05:20;;;;;;;21.55;8.48;;;18.20;99.90;;;;;;4973209;28;20030;-76
2021/06/12 03:07:50;;;;;;;14.73;6.38;;;18.20;99.90;;;;;;4974371;28;20030;-75
2021/06/12 03:10:16;;;;;;;14.07;6.13;;;18.20;99.90;;;;;;4973915;28;20082;-76
2021/06/12 03:12:46;;;;;;;17.65;6.75;;;18.30;99.90;;;;;;4972815;28;20041;-76
2021/06/12 03:15:12;;;;;;;16.38;6.85;;;18.40;99.90;;;;;;4973154;28;20039;-76
2021/06/12 03:17:38;;;;;;;14.95;6.47;;;18.40;99.90;;;;;;4975814;28;20035;-76
2021/06/12 03:20:06;;;;;;;14.13;7.13;;;18.40;99.90;;;;;;4977849;28;20081;-75
2021/06/12 03:22:32;;;;;;;;;;;18.30;99.90;;;;;;4977330;28;20163;-75
2021/06/12 03:24:58;;;;;;;16.10;6.25;;;18.30;99.90;;;;;;4976501;28;19936;-75
2021/06/12 03:27:24;;;;;;;17.73;6.60;;;18.30;99.90;;;;;;4975610;28;20019;-75
2021/06/12 03:29:50;;;;;;;20.85;7.18;;;18.20;99.90;;;;;;4976570;28;20073;-75
2021/06/12 03:32:16;;;;;;;17.10;6.82;;;18.20;99.90;;;;;;4976575;28;20125;-75
2021/06/12 03:34:42;;;;;;;16.50;6.00;;;18.20;99.90;;;;;;4976647;28;20038;-75
2021/06/12 03:37:08;;;;;;;14.13;6.60;;;18.10;99.90;;;;;;4976569;28;20108;-75
2021/06/12 03:39:34;;;;;;;11.90;5.35;;;18.10;99.90;;;;;;4977013;28;20031;-74
2021/06/12 03:42:00;;;;;;;16.27;6.57;;;18.00;99.90;;;;;;4977320;28;20046;-75
2021/06/12 03:44:27;;;;;;;21.17;7.45;;;18.00;99.90;;;;;;4977962;28;20027;-74
2021/06/12 03:46:53;;;;;;;16.90;6.70;;;17.90;99.90;;;;;;4977768;28;20483;-75
2021/06/12 03:49:19;;;;;;;18.48;7.78;;;17.90;99.90;;;;;;4975158;28;20110;-76
2021/06/12 03:51:47;;;;;;;15.30;7.18;;;17.80;99.90;;;;;;4968106;28;20357;-75
2021/06/12 03:54:14;;;;;;;13.15;7.10;;;17.70;99.90;;;;;;4977362;28;20055;-75
2021/06/12 03:56:40;;;;;;;18.40;7.15;;;17.70;99.90;;;;;;4976035;28;20537;-75
2021/06/12 03:59:08;;;;;;;14.00;5.90;;;17.70;99.90;;;;;;4975792;28;20054;-75
2021/06/12 04:01:34;;;;;;;;;;;17.80;99.90;;;;;;4976660;28;20038;-75
2021/06/12 04:04:00;;;;;;;10.10;5.88;;;17.80;99.90;;;;;;4975974;28;19910;-75
2021/06/12 04:06:26;;;;;;;13.65;6.90;;;17.90;99.90;;;;;;4977126;28;20027;-75
2021/06/12 04:08:52;;;;;;;11.48;7.03;;;17.80;99.90;;;;;;4975246;28;20431;-76
2021/06/12 04:11:18;;;;;;;17.52;6.13;;;17.80;99.90;;;;;;4976342;28;20031;-75
2021/06/12 04:13:44;;;;;;;17.33;7.32;;;17.80;99.90;;;;;;4977244;28;20023;-75
2021/06/12 04:16:11;;;;;;;25.38;7.18;;;17.80;99.90;;;;;;4977151;28;20026;-76
2021/06/12 04:18:37;;;;;;;16.35;6.93;;;17.60;99.90;;;;;;4975683;28;20038;-75
2021/06/12 04:21:04;;;;;;;13.23;6.03;;;17.50;99.90;;;;;;4976430;28;20034;-75
2021/06/12 04:23:30;;;;;;;13.90;6.28;;;17.40;99.90;;;;;;4989387;28;20026;-75
2021/06/12 04:25:56;;;;;;;20.35;7.10;;;17.50;99.90;;;;;;4976982;28;20041;-75
2021/06/12 04:28:22;;;;;;;14.82;6.20;;;17.60;99.90;;;;;;4975040;28;20553;-75
2021/06/12 04:30:47;;;;;;;16.08;6.03;;;17.60;99.90;;;;;;4976483;28;20388;-75
2021/06/12 04:33:13;;;;;;;13.57;5.93;;;17.60;99.90;;;;;;4974889;28;20369;-75
2021/06/12 04:35:39;;;;;;;11.40;5.05;;;17.70;99.90;;;;;;4976406;28;20560;-75
2021/06/12 04:38:05;;;;;;;14.60;5.40;;;17.60;99.90;;;;;;4975155;28;20058;-75
2021/06/12 04:40:33;;;;;;;14.93;6.60;;;17.40;99.90;;;;;;4976452;28;20023;-75
2021/06/12 04:42:59;;;;;;;8.43;5.35;;;17.40;99.90;;;;;;4973920;28;20109;-75
2021/06/12 04:45:25;;;;;;;11.95;5.10;;;17.30;99.90;;;;;;4969085;28;20042;-75
2021/06/12 04:47:51;;;;;;;12.55;5.88;;;17.20;99.90;;;;;;4976124;28;20029;-75
2021/06/12 04:50:17;;;;;;;7.95;5.53;;;17.10;99.90;;;;;;4976468;28;20031;-75
2021/06/12 04:52:43;;;;;;;9.93;5.70;;;17.20;99.90;;;;;;4976355;28;20026;-75
2021/06/12 04:55:09;;;;;;;12.48;5.32;;;17.20;99.90;;;;;;4976015;28;20495;-75
2021/06/12 04:57:36;;;;;;;17.35;5.35;;;17.20;99.90;;;;;;4973959;28;20030;-75
2021/06/12 05:00:05;;;;;;;19.00;6.80;;;17.20;99.90;;;;;;4970551;28;20038;-74
2021/06/12 05:02:31;;;;;;;14.57;5.57;;;17.10;99.90;;;;;;4973678;28;20033;-75
2021/06/12 05:04:57;;;;;;;13.10;5.57;;;17.10;99.90;;;;;;4975556;28;20038;-75
2021/06/12 05:07:22;;;;;;;12.68;6.03;;;17.20;99.90;;;;;;4975025;28;20035;-75
2021/06/12 05:09:48;;;;;;;13.82;5.40;;;17.20;99.90;;;;;;4974643;28;20065;-75
2021/06/12 05:12:14;;;;;;;15.30;6.22;;;17.20;99.90;;;;;;4974985;28;20037;-75
2021/06/12 05:14:39;;;;;;;15.48;5.28;;;17.10;99.90;;;;;;4974484;28;20480;-75
2021/06/12 05:17:08;;;;;;;14.07;4.93;;;17.10;99.90;;;;;;4976445;28;20039;-75
2021/06/12 05:19:34;;;;;;;10.00;5.30;;;17.20;99.90;;;;;;4974682;28;20043;-76
2021/06/12 05:21:59;;;;;;;10.98;5.00;;;17.20;99.90;;;;;;4975094;28;20046;-76
2021/06/12 05:24:25;;;;;;;11.82;4.57;;;17.30;99.90;;;;;;4976289;28;20109;-75
2021/06/12 05:26:51;;;;;;;10.15;5.60;;;17.50;99.90;;;;;;4974963;28;20034;-75
2021/06/12 05:29:16;;;;;;;12.27;5.22;;;17.50;99.90;;;;;;4975658;28;20031;-75
2021/06/12 05:31:42;;;;;;;11.48;5.05;;;17.60;99.90;;;;;;4974455;28;20121;-75
2021/06/12 05:34:08;;;;;;;12.75;4.88;;;17.80;99.90;;;;;;4976603;28;20034;-75
2021/06/12 05:36:33;;;;;;;14.00;4.70;;;17.90;99.90;;;;;;4976053;28;20033;-75
2021/06/12 05:38:59;;;;;;;10.98;4.57;;;18.00;99.90;;;;;;4975371;28;20047;-76
2021/06/12 05:41:25;;;;;;;15.25;5.28;;;18.00;99.90;;;;;;4970767;28;20046;-75
2021/06/12 05:43:50;;;;;;;13.50;4.47;;;17.90;99.90;;;;;;4976866;28;20027;-75
2021/06/12 05:46:16;;;;;;;14.32;4.30;;;17.90;99.90;;;;;;4979767;28;20026;-75
2021/06/12 05:48:42;;;;;;;10.23;4.22;;;17.90;99.90;;;;;;4995438;28;20557;-76
2021/06/12 05:51:07;;;;;;;8.20;4.00;;;18.00;99.90;;;;;;4994976;28;20086;-76
2021/06/12 05:53:33;;;;;;;13.10;4.25;;;18.10;99.90;;;;;;4988838;28;20022;-75
2021/06/12 05:55:59;;;;;;;10.27;4.50;;;18.10;99.90;;;;;;4991573;28;20039;-75
2021/06/12 05:58:25;;;;;;;12.02;4.97;;;18.20;99.90;;;;;;5000151;28;20046;-74
2021/06/12 06:00:50;;;;;;;9.70;3.90;;;18.30;99.90;;;;;;4995489;28;20039;-75
2021/06/12 06:03:16;;;;;;;9.18;4.07;;;18.30;99.90;;;;;;4995860;28;20070;-75
2021/06/12 06:05:42;;;;;;;5.57;3.63;;;18.30;99.90;;;;;;4996858;28;20039;-75
2021/06/12 06:08:07;;;;;;;8.85;3.60;;;18.80;99.90;;;;;;4996749;28;20070;-75
2021/06/12 06:10:33;;;;;;;4.30;3.17;;;19.80;99.90;;;;;;4996849;28;20054;-75
2021/06/12 06:13:02;;;;;;;11.75;4.68;;;20.50;99.90;;;;;;4997656;28;20039;-75
2021/06/12 06:15:28;;;;;;;9.00;3.70;;;20.80;99.90;;;;;;4997564;28;20034;-75
2021/06/12 06:17:54;;;;;;;6.28;3.22;;;20.70;99.90;;;;;;4994841;28;20094;-74
2021/06/12 06:20:20;;;;;;;8.27;3.75;;;20.40;99.90;;;;;;4984089;28;20110;-76
2021/06/12 06:22:45;;;;;;;8.30;3.90;;;19.80;99.90;;;;;;4977177;28;20038;-75
2021/06/12 06:25:11;;;;;;;6.90;3.33;;;19.50;99.90;;;;;;4976105;28;20062;-76
2021/06/12 06:27:38;;;;;;;12.15;4.20;;;19.20;99.90;;;;;;4979013;28;20061;-76
2021/06/12 06:30:05;;;;;;;6.30;3.30;;;19.00;99.90;;;;;;4977669;28;20050;-75
2021/06/12 06:32:31;;;;;;;;;;;18.90;99.90;;;;;;4977359;28;20050;-74
2021/06/12 06:34:57;;;;;;;7.38;3.35;;;19.00;99.90;;;;;;4978226;28;19964;-75
2021/06/12 06:37:23;;;;;;;7.85;2.97;;;18.90;99.90;;;;;;4977016;28;20050;-75
2021/06/12 06:39:48;;;;;;;4.45;2.80;;;18.80;99.90;;;;;;4977432;28;20102;-76
2021/06/12 06:42:14;;;;;;;9.48;3.55;;;18.80;99.90;;;;;;4976100;28;20436;-76
2021/06/12 06:44:40;;;;;;;6.18;3.10;;;18.80;99.90;;;;;;4975244;28;20019;-76
2021/06/12 06:47:07;;;;;;;12.20;3.15;;;18.90;99.90;;;;;;4974553;28;20034;-76
2021/06/12 06:49:32;;;;;;;9.75;3.33;;;19.00;99.90;;;;;;4956831;28;20094;-75
2021/06/12 06:51:58;;;;;;;6.38;2.97;;;18.90;99.90;;;;;;4973007;28;20387;-75
2021/06/12 06:54:24;;;;;;;11.48;3.55;;;18.80;99.90;;;;;;4976167;28;20038;-75
2021/06/12 06:56:49;;;;;;;4.57;2.13;;;18.80;99.90;;;;;;4973941;28;20047;-75
2021/06/12 06:59:16;;;;;;;6.78;2.17;;;18.80;99.90;;;;;;4973271;28;20038;-76
2021/06/12 07:01:42;;;;;;;6.10;2.17;;;18.80;99.90;;;;;;4972770;28;20034;-75
2021/06/12 07:04:07;;;;;;;4.47;2.38;;;18.70;99.90;;;;;;4972796;28;20387;-75
2021/06/12 07:06:33;;;;;;;4.13;1.80;;;18.80;99.90;;;;;;4974250;28;20394;-75
2021/06/12 07:08:59;;;;;;;5.82;2.33;;;18.60;99.90;;;;;;4972387;28;20487;-75
2021/06/12 07:11:24;;;;;;;14.52;2.63;;;18.50;99.90;;;;;;4972172;28;20019;-75
2021/06/12 07:13:50;;;;;;;7.32;2.42;;;18.60;99.90;;;;;;4973010;28;20023;-76
2021/06/12 07:16:16;;;;;;;10.05;1.83;;;18.60;99.90;;;;;;4973843;28;20054;-76
2021/06/12 07:18:41;;;;;;;7.00;2.40;;;18.70;99.90;;;;;;4972398;28;20376;-76
2021/06/12 07:21:07;;;;;;;7.53;3.38;;;18.80;99.90;;;;;;4973244;28;20035;-76
2021/06/12 07:23:32;;;;;;;8.43;2.08;;;18.70;99.90;;;;;;4971173;28;20031;-77
2021/06/12 07:25:58;;;;;;;3.40;1.88;;;18.60;99.90;;;;;;4972656;28;20023;-76
2021/06/12 07:28:24;;;;;;;3.80;2.28;;;18.70;99.90;;;;;;4971544;28;20029;-77
2021/06/12 07:30:50;;;;;;;5.53;2.00;;;18.70;99.90;;;;;;4972394;28;20015;-75
2021/06/12 07:33:16;;;;;;;7.72;2.50;;;18.70;99.90;;;;;;4971800;28;20026;-76
2021/06/12 07:35:42;;;;;;;5.25;2.05;;;18.60;99.90;;;;;;4972914;28;20026;-76
2021/06/12 07:38:08;;;;;;;4.07;2.20;;;18.60;99.90;;;;;;4980785;28;20034;-76
2021/06/12 07:40:34;;;;;;;5.05;1.98;;;18.70;99.90;;;;;;4982883;28;20034;-77
2021/06/12 07:43:00;;;;;;;6.57;2.08;;;18.80;99.90;;;;;;4973972;28;20037;-76
2021/06/12 07:45:26;;;;;;;5.28;2.05;;;18.80;99.90;;;;;;4972743;28;20293;-77
2021/06/12 07:47:52;;;;;;;6.68;2.33;;;18.80;99.90;;;;;;4971864;28;20026;-76
2021/06/12 07:50:18;;;;;;;6.38;2.15;;;18.80;99.90;;;;;;4973130;28;20027;-76
2021/06/12 07:52:44;;;;;;;6.32;2.60;;;18.80;99.90;;;;;;4971389;28;20038;-76
2021/06/12 07:55:11;;;;;;;8.30;2.10;;;18.70;99.90;;;;;;4968705;28;77162;-76
2021/06/12 07:57:37;;;;;;;8.27;2.60;;;18.80;99.90;;;;;;4976379;28;20042;-76
2021/06/12 08:00:08;;;;;;;14.85;2.42;;;18.70;99.90;;;;;;4973203;28;20043;-77
2021/06/12 08:02:34;;;;;;;7.25;2.15;;;18.80;99.90;;;;;;4974179;28;20109;-77
2021/06/12 08:05:00;;;;;;;4.82;1.75;;;18.80;99.90;;;;;;4976651;28;20035;-76
2021/06/12 08:07:26;;;;;;;4.53;2.20;;;18.70;99.90;;;;;;4974874;28;20034;-77
2021/06/12 08:09:51;;;;;;;8.55;2.80;;;18.60;99.90;;;;;;4975968;28;20027;-76
2021/06/12 08:12:17;;;;;;;6.38;2.10;;;18.70;99.90;;;;;;4976075;28;20078;-76
2021/06/12 08:14:43;;;;;;;9.82;3.40;;;18.80;99.90;;;;;;4966037;28;20476;-76
2021/06/12 08:17:10;;;;;;;11.68;2.40;;;18.80;99.90;;;;;;4972194;28;20060;-75
2021/06/12 08:19:36;;;;;;;16.83;3.00;;;18.90;99.90;;;;;;4979972;28;20455;-75
2021/06/12 08:22:02;;;;;;;4.43;2.30;;;19.30;99.90;;;;;;4979821;28;20062;-75
2021/06/12 08:24:28;;;;;;;5.40;2.20;;;19.50;99.90;;;;;;4979075;28;20045;-76
2021/06/12 08:26:54;;;;;;;6.03;2.17;;;19.50;99.90;;;;;;4977213;28;20392;-76
2021/06/12 08:29:20;;;;;;;5.95;3.03;;;19.50;99.90;;;;;;4978603;28;20061;-76
2021/06/12 08:31:45;;;;;;;5.80;2.35;;;19.70;99.90;;;;;;4980779;28;20106;-76
2021/06/12 08:34:11;;;;;;;5.22;2.00;;;19.80;99.90;;;;;;4980197;28;20077;-76
2021/06/12 08:36:37;;;;;;;10.20;3.72;;;19.90;99.90;;;;;;4979568;28;20035;-76
2021/06/12 08:39:03;;;;;;;8.13;2.78;;;19.80;99.90;;;;;;4979325;28;20117;-76
2021/06/12 08:41:30;;;;;;;10.43;2.35;;;20.00;99.90;;;;;;4976930;28;20558;-75
2021/06/12 08:43:59;;;;;;;7.95;2.65;;;20.20;99.90;;;;;;4974992;28;20042;-77
2021/06/12 08:46:26;;;;;;;11.30;2.63;;;20.10;99.90;;;;;;4975763;28;20456;-72
2021/06/12 08:48:51;;;;;;;7.72;2.47;;;20.10;99.90;;;;;;4976506;28;20526;-73
2021/06/12 08:51:17;;;;;;;6.90;2.40;;;19.90;99.90;;;;;;4975268;28;20035;-73
2021/06/12 08:53:43;;;;;;;6.80;2.38;;;19.80;99.90;;;;;;4975072;28;20023;-76
2021/06/12 08:56:08;;;;;;;6.38;2.03;;;20.00;99.90;;;;;;4976177;28;20057;-74
2021/06/12 08:58:34;;;;;;;8.48;2.17;;;20.10;99.90;;;;;;4974655;28;20078;-74
2021/06/12 09:01:00;;;;;;;8.57;2.25;;;19.90;99.90;;;;;;4975460;28;20506;-74
2021/06/12 09:03:28;;;;;;;11.15;2.28;;;19.80;99.90;;;;;;4975855;28;20038;-75
2021/06/12 09:05:59;;;;;;;10.45;2.05;;;19.80;99.90;;;;;;4975860;28;20030;-74
2021/06/12 09:08:30;;;;;;;8.93;1.75;;;19.70;99.90;;;;;;4975827;28;20030;-73
2021/06/12 09:11:07;;;;;;;11.10;2.33;;;19.90;99.90;;;;;;4976178;28;20038;-73
2021/06/12 09:13:49;;;;;;;6.32;2.65;;;19.90;99.90;;;;;;4966806;28;20492;-73
2021/06/12 09:16:23;;;;;;;8.13;2.50;;;19.90;99.90;;;;;;4975612;28;20027;-73
2021/06/12 09:18:49;;;;;;;6.80;1.92;;;19.80;99.90;;;;;;4990918;28;20041;-73
2021/06/12 09:21:33;;;;;;;11.85;2.00;;;19.90;99.90;;;;;;4974731;28;20551;-73
2021/06/12 09:24:00;;;;;;;5.07;1.98;;;19.60;99.90;;;;;;4973878;28;20380;-73
2021/06/12 09:26:44;;;;;;;11.23;1.92;;;19.40;99.90;;;;;;4978005;28;20022;-73
2021/06/12 09:29:12;;;;;;;3.22;1.60;;;19.20;99.90;;;;;;4975678;28;20023;-73
2021/06/12 09:31:48;;;;;;;;;;;19.30;99.90;;;;;;4972750;28;20035;-73
2021/06/12 09:34:16;;;;;;;4.72;2.00;;;19.40;99.90;;;;;;4972964;28;19945;-73
2021/06/12 09:36:42;;;;;;;5.35;2.15;;;19.70;99.90;;;;;;4974648;28;20030;-73
2021/06/12 09:39:16;;;;;;;6.53;1.75;;;19.90;99.90;;;;;;4974484;28;20027;-73
2021/06/12 09:41:47;;;;;;;6.35;1.85;;;19.90;99.90;;;;;;4973334;28;20121;-73
2021/06/12 09:44:38;;;;;;;9.02;2.45;;;19.90;99.90;;;;;;4982858;28;20034;-72
2021/06/12 09:47:05;;;;;;;6.90;1.80;;;19.80;99.90;;;;;;4974992;28;20038;-73
2021/06/12 09:49:34;;;;;;;4.10;1.57;;;19.70;99.90;;;;;;4975154;28;20029;-73
2021/06/12 09:52:05;;;;;;;6.75;1.80;;;19.50;99.90;;;;;;4990124;28;20437;-73
2021/06/12 09:54:40;;;;;;;4.05;1.90;;;19.60;99.90;;;;;;4986324;28;20480;-72
2021/06/12 09:57:07;;;;;;;8.43;1.77;;;19.90;99.90;;;;;;4975391;28;20117;-73
2021/06/12 09:59:48;;;;;;;8.25;2.25;;;20.10;99.90;;;;;;4974352;28;20483;-73
2021/06/12 10:02:34;;;;;;;7.75;1.95;;;20.20;99.80;;;;;;4981834;28;20042;-72
2021/06/12 10:04:59;;;;;;;8.48;2.10;;;20.20;99.70;;;;;;4970648;28;20037;-72
2021/06/12 10:07:26;;;;;;;5.03;2.42;;;20.40;99.90;;;;;;4973591;28;20383;-73
2021/06/12 10:09:53;;;;;;;10.18;1.90;;;20.40;99.90;;;;;;4973859;28;20031;-72
2021/06/12 10:12:20;;;;;;;11.85;1.85;;;20.40;99.80;;;;;;4975266;28;20030;-72
2021/06/12 10:14:46;;;;;;;8.02;2.22;;;20.20;99.60;;;;;;4974078;28;20551;-73
2021/06/12 10:17:13;;;;;;;10.15;2.00;;;20.20;99.60;;;;;;4974199;28;20038;-72
2021/06/12 10:19:41;;;;;;;11.23;2.23;;;20.40;99.50;;;;;;4971930;28;20086;-72
2021/06/12 10:22:08;;;;;;;4.68;2.20;;;20.80;99.80;;;;;;4972843;28;20736;-73
2021/06/12 10:24:35;;;;;;;9.30;1.85;;;20.70;99.50;;;;;;4972454;28;20050;-73
2021/06/12 10:27:02;;;;;;;10.40;2.35;;;20.80;99.50;;;;;;4972812;28;20027;-72
2021/06/12 10:29:27;;;;;;;5.45;1.70;;;21.20;98.60;;;;;;4971388;28;20050;-73
2021/06/12 10:31:55;;;;;;;4.57;1.63;;;21.30;98.10;;;;;;4976452;28;20062;-72
2021/06/12 10:34:31;;;;;;;8.32;1.60;;;21.20;98.70;;;;;;4971512;28;20054;-72
2021/06/12 10:37:06;;;;;;;6.15;1.80;;;21.10;98.50;;;;;;4969455;28;20491;-72
2021/06/12 10:39:37;;;;;;;4.32;2.00;;;21.20;98.40;;;;;;4974085;28;20041;-73
2021/06/12 10:42:15;;;;;;;8.88;1.98;;;21.50;98.40;;;;;;4973914;28;20031;-72
2021/06/12 10:44:44;;;;;;;8.77;1.90;;;22.10;97.90;;;;;;4972918;28;20030;-73
2021/06/12 10:47:10;;;;;;;8.55;1.90;;;22.50;98.30;;;;;;4974279;28;20030;-73
2021/06/12 10:49:36;;;;;;;8.40;2.33;;;22.20;97.80;;;;;;4973377;28;20031;-74
2021/06/12 10:52:04;;;;;;;8.88;2.00;;;22.30;97.40;;;;;;4975154;28;20037;-73
2021/06/12 10:54:37;;;;;;;6.00;1.65;;;22.00;97.20;;;;;;4972403;28;20030;-74
2021/06/12 10:57:11;;;;;;;4.00;1.30;;;21.90;98.00;;;;;;4975039;28;20528;-73
2021/06/12 10:59:37;;;;;;;7.60;2.47;;;21.60;97.60;;;;;;4969778;28;20499;-73
2021/06/12 11:02:24;;;;;;;7.57;2.33;;;21.60;98.00;;;;;;4973001;28;20043;-73
2021/06/12 11:07:27;;;;;;;7.97;2.10;;;21.50;98.20;;;;;;4975743;28;20353;-73
2021/06/12 11:10:13;;;;;;;6.60;1.60;;;21.30;98.60;;;;;;4974069;28;20046;-73
2021/06/12 11:12:42;;;;;;;10.88;2.17;;;21.60;98.60;;;;;;4973484;28;20474;-73
2021/06/12 11:15:21;;;;;;;15.35;1.95;;;21.70;97.70;;;;;;4970206;28;20038;-72
2021/06/12 11:18:17;;;;;;;8.23;1.52;;;21.60;98.10;;;;;;4998010;28;20427;-72
2021/06/12 11:20:46;;;;;;;19.92;3.13;;;22.00;97.80;;;;;;4984650;28;20030;-73
2021/06/12 11:23:23;;;;;;;12.80;2.75;;;21.90;97.30;;;;;;4986620;28;20062;-72
2021/06/12 11:25:55;;;;;;;;;;;21.90;97.90;;;;;;4972462;28;20372;-73
2021/06/12 11:28:24;;;;;;;7.10;2.88;;;21.60;98.10;;;;;;4970500;28;19907;-73
2021/06/12 11:30:52;;;;;;;9.70;2.25;;;21.50;98.00;;;;;;4988920;28;20573;-72
2021/06/12 11:33:18;;;;;;;4.82;1.67;;;21.50;98.40;;;;;;4987416;28;20037;-73
2021/06/12 11:36:01;;;;;;;4.07;1.58;;;21.70;98.20;;;;;;4986829;28;20493;-73
2021/06/12 11:38:37;;;;;;;5.63;2.38;;;21.70;98.20;;;;;;4988516;28;20066;-73
2021/06/12 11:41:07;;;;;;;6.43;2.15;;;21.40;97.80;;;;;;4985335;28;20091;-73
2021/06/12 11:43:32;;;;;;;9.75;1.90;;;20.80;98.30;;;;;;4986590;28;20077;-72
2021/06/12 11:46:00;;;;;;;4.45;1.95;;;20.50;99.10;;;;;;4989484;28;20007;-74
2021/06/12 11:48:26;;;;;;;9.27;1.70;;;20.40;99.20;;;;;;4993413;28;20022;-72
2021/06/12 11:50:53;;;;;;;6.43;2.03;;;20.50;98.50;;;;;;4994959;28;20023;-72
2021/06/12 11:53:21;;;;;;;5.40;1.83;;;20.30;98.70;;;;;;4996140;28;20120;-70
2021/06/12 11:55:48;;;;;;;5.38;1.55;;;20.30;98.90;;;;;;4991324;28;20054;-72
2021/06/12 11:58:15;;;;;;;8.32;2.15;;;20.50;99.50;;;;;;4993490;28;20093;-72
2021/06/12 12:00:48;;;;;;;3.22;1.25;;;20.60;99.20;;;;;;4995461;28;20034;-71
2021/06/12 12:03:18;;;;;;;8.35;2.00;;;20.60;98.60;;;;;;4990888;28;20023;-72
2021/06/12 12:05:52;;;;;;;9.52;1.98;;;20.50;98.70;;;;;;4994842;28;20054;-70
2021/06/12 12:08:23;;;;;;;8.75;2.03;;;20.70;98.50;;;;;;4990742;28;20384;-70
2021/06/12 12:10:51;;;;;;;5.82;1.90;;;20.70;98.90;;;;;;4983172;28;20027;-72
2021/06/12 12:13:37;;;;;;;4.95;1.90;;;20.50;98.70;;;;;;4981182;28;20067;-72
2021/06/12 12:16:20;;;;;;;4.40;2.00;;;20.40;99.30;;;;;;4963405;28;20031;-72
2021/06/12 12:18:50;;;;;;;6.53;1.85;;;20.20;99.00;;;;;;4973666;28;20069;-72
2021/06/12 12:21:49;;;;;;;8.68;1.85;;;20.30;99.50;;;;;;4978992;28;20047;-72
2021/06/12 12:24:15;;;;;;;7.97;2.72;;;20.50;99.00;;;;;;4938665;29;20043;-71
2021/06/12 12:26:58;;;;;;;7.45;1.77;;;20.70;99.20;;;;;;4940225;29;20485;-71
2021/06/12 12:29:25;;;;;;;9.68;2.00;;;21.10;98.30;;;;;;4938690;29;20035;-72
2021/06/12 12:31:52;;;;;;;4.85;1.45;;;21.40;97.80;;;;;;4937751;29;20034;-71
2021/06/12 12:34:38;;;;;;;7.45;1.95;;;21.00;97.60;;;;;;4912000;29;20554;-73
2021/06/12 12:37:16;;;;;;;4.43;1.77;;;20.50;98.70;;;;;;4923199;29;20043;-73
2021/06/12 12:39:44;;;;;;;3.58;1.35;;;20.20;98.20;;;;;;4941097;29;20044;-72
2021/06/12 12:42:20;;;;;;;10.25;2.45;;;20.10;98.30;;;;;;4934074;29;20039;-71
2021/06/12 12:44:49;;;;;;;8.38;1.52;;;20.00;98.50;;;;;;4934509;29;20048;-72
2021/06/12 12:47:22;;;;;;;2.92;1.35;;;19.90;98.80;;;;;;4936921;29;20122;-72
2021/06/12 12:49:48;;;;;;;10.82;1.70;;;20.00;98.50;;;;;;4936911;29;20563;-73
2021/06/12 12:52:25;;;;;;;6.78;1.92;;;20.10;98.80;;;;;;4936182;29;20119;-72